Terminal Aerodrome Forecast
Issued by NWS

Home | Current Version | Previous Version | Text Only | Print | Product List | Glossary On
Versions: 1 2 3 4 5 6 7 8 9 10 11 12 13 14 15 16 17 18
879
FTUS45 KFGZ 161442 AAA
TAFPRC
TAF AMD
KPRC 161442Z 1615/1712 VRB04KT P6SM OVC015
     FM161600 VRB06KT P6SM FEW015 BKN040
     FM170300 VRB04KT P6SM FEW040 SCT150 BKN200=

USA.gov is the U.S. government's official web portal to all federal, state and local government web resources and services.